createdAt,value
2023-04-16T00:00:36.528Z,91.40
2023-04-16T00:03:00.056Z,91.40
2023-04-16T00:05:23.829Z,91.30
2023-04-16T00:07:48.467Z,91.40
2023-04-16T00:10:12.147Z,91.50
2023-04-16T00:12:36.485Z,91.50
2023-04-16T00:14:59.832Z,91.50
2023-04-16T00:17:23.140Z,91.30
2023-04-16T00:19:46.646Z,91.40
2023-04-16T00:22:10.113Z,91.30
2023-04-16T00:24:34.753Z,91.30
2023-04-16T00:26:57.971Z,91.30
2023-04-16T00:29:21.308Z,91.30
2023-04-16T00:31:44.584Z,91.30
2023-04-16T00:34:07.832Z,91.30
2023-04-16T00:36:31.281Z,91.20
2023-04-16T00:38:55.716Z,91.30
2023-04-16T00:41:20.682Z,91.30
2023-04-16T00:43:44.058Z,91.20
2023-04-16T00:46:08.036Z,91.30
2023-04-16T00:48:32.852Z,91.30
2023-04-16T00:50:56.527Z,91.40
2023-04-16T00:53:20.025Z,91.30
2023-04-16T00:55:43.809Z,91.30
2023-04-16T00:58:08.812Z,91.30
2023-04-16T01:00:32.028Z,91.20
2023-04-16T01:02:55.979Z,91.40
2023-04-16T01:05:19.608Z,91.30
2023-04-16T01:07:42.867Z,91.40
2023-04-16T01:10:07.094Z,91.50
2023-04-16T01:12:30.660Z,91.40
2023-04-16T01:14:55.388Z,91.40
2023-04-16T01:17:18.628Z,91.40
2023-04-16T01:19:42.581Z,91.30
2023-04-16T01:22:07.350Z,91.40
2023-04-16T01:24:30.860Z,91.60
2023-04-16T01:26:54.205Z,91.50
2023-04-16T01:29:17.507Z,91.60
2023-04-16T01:31:41.137Z,91.70
2023-04-16T01:34:21.047Z,91.90
2023-04-16T01:36:44.530Z,91.80
2023-04-16T01:39:11.500Z,92.00
2023-04-16T01:41:34.793Z,92.10
2023-04-16T01:43:58.713Z,92.10
2023-04-16T01:46:28.989Z,92.20
2023-04-16T01:48:54.697Z,92.10
2023-04-16T01:51:17.992Z,92.00
2023-04-16T01:53:41.694Z,92.10
2023-04-16T01:56:08.168Z,91.90
2023-04-16T01:58:33.202Z,92.20
2023-04-16T02:00:57.095Z,92.20
2023-04-16T02:03:20.514Z,92.10
2023-04-16T02:05:43.881Z,92.10
2023-04-16T02:08:07.677Z,92.20
2023-04-16T02:10:31.035Z,92.30
2023-04-16T02:12:56.967Z,92.20
2023-04-16T02:15:20.606Z,92.40
2023-04-16T02:17:44.251Z,92.30
2023-04-16T02:20:10.275Z,92.40
2023-04-16T02:22:44.413Z,92.30
2023-04-16T02:25:11.018Z,92.40
2023-04-16T02:27:34.269Z,92.50
2023-04-16T02:30:13.036Z,92.70
2023-04-16T02:32:37.109Z,92.70
2023-04-16T02:35:00.521Z,92.80
2023-04-16T02:37:24.701Z,93.00
2023-04-16T02:39:49.712Z,93.00
2023-04-16T02:42:12.980Z,93.10
2023-04-16T02:44:36.232Z,93.10
2023-04-16T02:47:00.953Z,93.20
2023-04-16T02:49:25.016Z,93.00
2023-04-16T02:51:48.380Z,93.10
2023-04-16T02:54:11.699Z,93.20
2023-04-16T02:56:35.082Z,93.30
2023-04-16T02:58:58.358Z,93.30
2023-04-16T03:01:21.697Z,93.30
2023-04-16T03:03:46.487Z,93.40
2023-04-16T03:06:10.005Z,93.40
2023-04-16T03:08:33.342Z,93.30
2023-04-16T03:10:56.643Z,93.40
2023-04-16T03:13:19.902Z,93.50
2023-04-16T03:15:49.362Z,93.50
2023-04-16T03:18:12.765Z,93.40
2023-04-16T03:20:37.364Z,93.50
2023-04-16T03:23:00.678Z,93.60
2023-04-16T03:25:24.717Z,93.60
2023-04-16T03:27:48.069Z,93.70
2023-04-16T03:30:13.910Z,93.80
2023-04-16T03:32:38.431Z,93.80
2023-04-16T03:35:02.248Z,93.80
2023-04-16T03:37:27.083Z,93.80
2023-04-16T03:39:50.426Z,93.90
2023-04-16T03:42:13.745Z,93.90
2023-04-16T03:44:37.677Z,93.90
2023-04-16T03:47:01.080Z,94.00
2023-04-16T03:49:24.481Z,94.00
2023-04-16T03:51:48.461Z,94.20
2023-04-16T03:54:13.119Z,94.20
2023-04-16T03:56:37.613Z,94.20
2023-04-16T03:59:00.870Z,94.30
2023-04-16T04:01:24.276Z,94.30
2023-04-16T04:03:49.192Z,94.30
2023-04-16T04:06:12.789Z,94.40
2023-04-16T04:08:36.504Z,94.40
2023-04-16T04:11:02.589Z,94.40
2023-04-16T04:13:26.987Z,94.40
2023-04-16T04:15:50.671Z,94.50
2023-04-16T04:18:14.293Z,94.50
2023-04-16T04:20:41.655Z,94.60
2023-04-16T04:23:05.328Z,94.60
2023-04-16T04:25:28.759Z,94.60
2023-04-16T04:27:53.438Z,94.60
2023-04-16T04:30:16.844Z,94.60
2023-04-16T04:32:40.974Z,94.60
2023-04-16T04:35:05.592Z,94.60
2023-04-16T04:37:28.893Z,94.70
2023-04-16T04:39:52.169Z,94.70
2023-04-16T04:42:16.184Z,94.60
2023-04-16T04:44:40.810Z,94.60
2023-04-16T04:47:04.974Z,94.60
2023-04-16T04:49:28.304Z,94.70
2023-04-16T04:51:51.616Z,94.60
2023-04-16T04:54:14.968Z,94.70
2023-04-16T04:56:39.998Z,94.70
2023-04-16T04:59:03.239Z,94.80
2023-04-16T05:01:27.966Z,94.80
2023-04-16T05:03:51.352Z,94.90
2023-04-16T05:06:14.616Z,94.80
2023-04-16T05:08:37.904Z,94.80
2023-04-16T05:11:01.726Z,94.80
2023-04-16T05:13:25.162Z,94.90
2023-04-16T05:15:48.584Z,94.90
2023-04-16T05:18:13.278Z,94.90
2023-04-16T05:20:37.984Z,94.90
2023-04-16T05:23:01.380Z,95.00
2023-04-16T05:25:24.916Z,95.00
2023-04-16T05:27:48.169Z,95.00
2023-04-16T05:30:12.452Z,95.00
2023-04-16T05:32:35.982Z,95.00
2023-04-16T05:35:00.697Z,95.00
2023-04-16T05:37:24.059Z,95.00
2023-04-16T05:39:47.308Z,95.10
2023-04-16T05:42:11.152Z,95.10
2023-04-16T05:44:34.858Z,95.10
2023-04-16T05:46:58.114Z,95.20
2023-04-16T05:49:22.088Z,95.10
2023-04-16T05:51:47.364Z,95.20
2023-04-16T05:54:10.655Z,95.20
2023-04-16T05:56:33.842Z,95.20
2023-04-16T05:58:57.148Z,95.20
2023-04-16T06:01:20.402Z,95.20
2023-04-16T06:03:44.281Z,95.20
2023-04-16T06:06:08.909Z,95.20
2023-04-16T06:08:33.508Z,95.30
2023-04-16T06:10:57.019Z,95.20
2023-04-16T06:13:20.340Z,95.20
2023-04-16T06:15:43.785Z,95.30
2023-04-16T06:18:07.088Z,95.40
2023-04-16T06:20:30.652Z,95.30
2023-04-16T06:22:54.049Z,95.30
2023-04-16T06:25:18.983Z,95.30
2023-04-16T06:27:42.330Z,95.30
2023-04-16T06:30:07.410Z,95.20
2023-04-16T06:32:31.176Z,95.20
2023-04-16T06:34:54.653Z,94.90
2023-04-16T06:37:17.963Z,95.00
2023-04-16T06:39:41.302Z,94.80
2023-04-16T06:42:06.274Z,94.80
2023-04-16T06:44:29.537Z,94.80
2023-04-16T06:46:52.912Z,94.70
2023-04-16T06:49:16.249Z,94.70
2023-04-16T06:51:39.595Z,94.60
2023-04-16T06:54:02.988Z,94.50
2023-04-16T06:56:26.381Z,94.40
2023-04-16T06:58:51.801Z,94.50
2023-04-16T07:01:15.289Z,94.20
2023-04-16T07:03:38.846Z,94.30
2023-04-16T07:06:02.467Z,94.10
2023-04-16T07:08:25.791Z,94.00
2023-04-16T07:10:49.123Z,94.10
2023-04-16T07:13:13.253Z,94.00
2023-04-16T07:15:38.098Z,94.00
2023-04-16T07:18:01.435Z,93.80
2023-04-16T07:20:25.101Z,93.90
2023-04-16T07:22:48.446Z,93.80
2023-04-16T07:25:12.081Z,93.50
2023-04-16T07:27:35.325Z,93.60
2023-04-16T07:29:58.602Z,93.50
2023-04-16T07:32:23.682Z,93.30
2023-04-16T07:34:47.004Z,93.10
2023-04-16T07:37:10.507Z,92.70
2023-04-16T07:39:33.831Z,92.50
2023-04-16T07:41:57.111Z,92.30
2023-04-16T07:44:20.376Z,91.80
2023-04-16T07:46:46.791Z,91.50
2023-04-16T07:49:12.455Z,90.80
2023-04-16T07:51:35.636Z,90.80
2023-04-16T07:53:58.830Z,90.60
2023-04-16T07:56:21.989Z,90.50
2023-04-16T07:58:45.213Z,90.70
2023-04-16T08:01:08.517Z,90.30
2023-04-16T08:03:31.903Z,90.00
2023-04-16T08:05:56.705Z,90.50
2023-04-16T08:08:19.961Z,89.90
2023-04-16T08:10:43.242Z,89.90
2023-04-16T08:13:06.555Z,90.00
2023-04-16T08:15:29.942Z,89.90
2023-04-16T08:17:53.318Z,89.70
2023-04-16T08:20:18.626Z,89.70
2023-04-16T08:22:44.009Z,89.30
2023-04-16T08:25:08.943Z,89.80
2023-04-16T08:27:32.244Z,89.70
2023-04-16T08:29:55.583Z,89.90
2023-04-16T08:32:18.890Z,89.60
2023-04-16T08:34:43.326Z,89.60
2023-04-16T08:37:06.630Z,89.40
2023-04-16T08:39:31.348Z,89.50
2023-04-16T08:41:56.376Z,89.30
2023-04-16T08:44:27.291Z,89.20
2023-04-16T08:46:54.790Z,88.90
2023-04-16T08:49:19.161Z,87.70
2023-04-16T08:51:47.102Z,88.10
2023-04-16T08:54:13.481Z,88.00
2023-04-16T08:56:42.413Z,86.50
2023-04-16T08:59:06.498Z,87.40
2023-04-16T09:01:30.149Z,85.90
2023-04-16T09:03:53.976Z,86.60
2023-04-16T09:06:18.366Z,86.40
2023-04-16T09:08:42.710Z,85.90
2023-04-16T09:11:06.565Z,85.10
2023-04-16T09:13:32.852Z,84.50
2023-04-16T09:15:57.171Z,84.60
2023-04-16T09:18:21.503Z,85.30
2023-04-16T09:20:44.775Z,85.10
2023-04-16T09:23:08.045Z,83.50
2023-04-16T09:25:34.717Z,83.70
2023-04-16T09:27:57.984Z,83.40
2023-04-16T09:30:25.079Z,82.90
2023-04-16T09:32:48.938Z,83.50
2023-04-16T09:35:12.122Z,83.20
2023-04-16T09:37:35.710Z,82.90
2023-04-16T09:40:00.906Z,82.90
2023-04-16T09:42:27.407Z,82.70
2023-04-16T09:44:51.661Z,81.10
2023-04-16T09:47:16.609Z,81.90
2023-04-16T09:49:43.861Z,82.60
2023-04-16T09:52:15.124Z,82.20
2023-04-16T09:54:42.817Z,81.90
2023-04-16T09:57:07.380Z,81.60
2023-04-16T09:59:33.830Z,80.50
2023-04-16T10:02:14.946Z,82.10
2023-04-16T10:04:49.719Z,80.10
2023-04-16T10:07:13.319Z,82.10
2023-04-16T10:09:40.004Z,81.90
2023-04-16T10:12:03.535Z,80.90
2023-04-16T10:14:26.831Z,80.20
2023-04-16T10:16:50.347Z,79.80
2023-04-16T10:19:14.397Z,80.00
2023-04-16T10:21:39.132Z,78.10
2023-04-16T10:24:03.029Z,77.30
2023-04-16T10:26:26.348Z,76.80
2023-04-16T10:28:49.876Z,78.70
2023-04-16T10:31:14.461Z,76.40
2023-04-16T10:33:41.515Z,78.50
2023-04-16T10:36:13.163Z,77.80
2023-04-16T10:38:41.152Z,78.20
2023-04-16T10:41:05.876Z,76.50
2023-04-16T10:43:30.775Z,79.10
2023-04-16T10:45:56.156Z,76.30
2023-04-16T10:48:20.616Z,76.00
2023-04-16T10:50:43.913Z,75.70
2023-04-16T10:53:21.706Z,73.30
2023-04-16T10:56:12.792Z,71.10
2023-04-16T10:58:37.432Z,73.80
2023-04-16T11:01:01.979Z,73.20
2023-04-16T11:03:26.055Z,73.50
2023-04-16T11:05:49.481Z,73.80
2023-04-16T11:08:16.012Z,74.20
2023-04-16T11:10:41.247Z,73.10
2023-04-16T11:13:08.997Z,73.10
2023-04-16T11:15:33.666Z,71.30
2023-04-16T11:17:56.977Z,72.80
2023-04-16T11:20:22.156Z,72.30
2023-04-16T11:22:46.528Z,73.60
2023-04-16T11:25:10.880Z,73.90
2023-04-16T11:27:34.256Z,70.70
2023-04-16T11:30:05.009Z,69.20
2023-04-16T11:32:28.424Z,70.40
2023-04-16T11:34:51.930Z,72.70
2023-04-16T11:37:15.239Z,69.70
2023-04-16T11:39:50.876Z,70.10
2023-04-16T11:42:22.766Z,71.10
2023-04-16T11:44:46.119Z,71.90
2023-04-16T11:47:13.716Z,67.00
2023-04-16T11:49:37.045Z,65.90
2023-04-16T11:52:01.505Z,70.00
2023-04-16T11:54:26.267Z,67.60
2023-04-16T11:56:51.445Z,71.10
2023-04-16T11:59:16.601Z,69.10
2023-04-16T12:01:42.092Z,68.50
2023-04-16T12:04:07.524Z,67.80
2023-04-16T12:06:32.275Z,66.50
2023-04-16T12:08:55.720Z,67.60
2023-04-16T12:11:18.979Z,65.80
2023-04-16T12:13:42.290Z,68.80
2023-04-16T12:16:17.701Z,67.90
2023-04-16T12:19:01.205Z,66.30
2023-04-16T12:21:26.501Z,67.30
2023-04-16T12:23:54.973Z,66.90
2023-04-16T12:26:18.449Z,67.30
2023-04-16T12:28:42.013Z,68.30
2023-04-16T12:31:06.450Z,68.00
2023-04-16T12:33:30.029Z,67.90
2023-04-16T12:35:53.385Z,66.80
2023-04-16T12:38:18.402Z,66.10
2023-04-16T12:40:42.180Z,67.60
2023-04-16T12:43:05.707Z,68.10
2023-04-16T12:45:29.035Z,63.00
2023-04-16T12:47:52.407Z,65.60
2023-04-16T12:50:16.072Z,65.60
2023-04-16T12:52:39.485Z,62.80
2023-04-16T12:55:04.713Z,65.40
2023-04-16T12:57:28.747Z,65.30
2023-04-16T12:59:52.018Z,65.40
2023-04-16T13:02:15.479Z,63.40
2023-04-16T13:04:38.937Z,64.90
2023-04-16T13:07:02.404Z,64.80
2023-04-16T13:09:26.034Z,64.50
2023-04-16T13:11:50.996Z,66.00
2023-04-16T13:14:14.258Z,66.40
2023-04-16T13:16:38.704Z,64.70
2023-04-16T13:19:02.085Z,64.10
2023-04-16T13:21:25.367Z,66.60
2023-04-16T13:23:48.686Z,63.00
2023-04-16T13:26:13.043Z,63.80
2023-04-16T13:28:37.703Z,64.30
2023-04-16T13:31:03.397Z,64.60
2023-04-16T13:33:28.378Z,66.10
2023-04-16T13:35:51.656Z,65.40
2023-04-16T13:38:14.906Z,65.90
2023-04-16T13:40:38.199Z,65.10
2023-04-16T13:43:01.753Z,64.30
2023-04-16T13:45:27.819Z,63.50
2023-04-16T13:47:51.166Z,63.90
2023-04-16T13:50:14.477Z,65.70
2023-04-16T13:52:37.844Z,64.30
2023-04-16T13:55:01.636Z,66.00
2023-04-16T13:57:24.974Z,65.10
2023-04-16T13:59:48.243Z,66.80
2023-04-16T14:02:13.504Z,67.60
2023-04-16T14:04:36.683Z,66.00
2023-04-16T14:06:59.975Z,66.90
2023-04-16T14:09:23.288Z,66.20
2023-04-16T14:11:47.008Z,67.80
2023-04-16T14:14:10.317Z,65.60
2023-04-16T14:16:33.951Z,65.40
2023-04-16T14:18:58.570Z,64.30
2023-04-16T14:21:21.835Z,65.30
2023-04-16T14:23:45.128Z,63.90
2023-04-16T14:26:08.564Z,66.90
2023-04-16T14:28:32.065Z,66.80
2023-04-16T14:30:55.370Z,66.00
2023-04-16T14:33:18.641Z,65.50
2023-04-16T14:35:43.396Z,67.10
2023-04-16T14:38:06.632Z,66.80
2023-04-16T14:40:30.043Z,64.60
2023-04-16T14:42:53.309Z,64.70
2023-04-16T14:45:16.583Z,64.80
2023-04-16T14:47:45.808Z,64.30
2023-04-16T14:50:11.347Z,66.40
2023-04-16T14:52:35.948Z,67.30
2023-04-16T14:54:59.704Z,65.80
2023-04-16T14:57:23.314Z,65.70
2023-04-16T14:59:47.505Z,64.90
2023-04-16T15:02:11.221Z,67.30
2023-04-16T15:04:34.709Z,66.20
2023-04-16T15:06:58.990Z,65.30
2023-04-16T15:09:23.619Z,64.60
2023-04-16T15:11:46.882Z,65.50
2023-04-16T15:14:10.298Z,63.20
2023-04-16T15:16:33.848Z,64.10
2023-04-16T15:18:57.194Z,65.30
2023-04-16T15:21:20.530Z,65.70
2023-04-16T15:23:43.905Z,68.10
2023-04-16T15:26:08.508Z,72.60
2023-04-16T15:28:31.845Z,72.20
2023-04-16T15:30:55.227Z,73.90
2023-04-16T15:33:18.567Z,74.50
2023-04-16T15:35:42.118Z,74.60
2023-04-16T15:38:06.003Z,72.20
2023-04-16T15:40:29.392Z,74.00
2023-04-16T15:42:54.370Z,74.30
2023-04-16T15:45:17.878Z,74.40
2023-04-16T15:47:41.887Z,74.60
2023-04-16T15:50:06.525Z,73.50
2023-04-16T15:52:29.897Z,73.20
2023-04-16T15:54:53.408Z,73.40
2023-04-16T15:57:16.677Z,74.80
2023-04-16T15:59:41.332Z,75.60
2023-04-16T16:02:04.717Z,76.70
2023-04-16T16:04:28.420Z,76.50
2023-04-16T16:06:52.094Z,76.80
2023-04-16T16:09:15.600Z,77.60
2023-04-16T16:11:39.137Z,79.20
2023-04-16T16:14:02.490Z,79.70
2023-04-16T16:16:27.469Z,80.10
2023-04-16T16:18:50.806Z,80.40
2023-04-16T16:21:14.031Z,81.10
2023-04-16T16:23:37.517Z,81.90
2023-04-16T16:26:01.433Z,81.90
2023-04-16T16:28:25.232Z,82.20
2023-04-16T16:30:50.802Z,83.10
2023-04-16T16:33:16.078Z,83.30
2023-04-16T16:35:39.316Z,82.10
2023-04-16T16:38:02.797Z,81.30
2023-04-16T16:40:26.338Z,82.20
2023-04-16T16:42:49.839Z,81.50
2023-04-16T16:45:13.352Z,80.70
2023-04-16T16:47:36.710Z,79.90
2023-04-16T16:50:03.018Z,80.30
2023-04-16T16:52:27.300Z,80.70
2023-04-16T16:54:50.600Z,81.30
2023-04-16T16:57:15.285Z,81.50
2023-04-16T16:59:38.560Z,81.70
2023-04-16T17:02:01.922Z,82.10
2023-04-16T17:04:25.453Z,82.80
2023-04-16T17:06:50.817Z,83.30
2023-04-16T17:09:14.209Z,83.50
2023-04-16T17:11:37.885Z,84.00
2023-04-16T17:14:01.168Z,84.70
2023-04-16T17:16:24.617Z,84.90
2023-04-16T17:18:48.486Z,85.20
2023-04-16T17:21:11.760Z,85.50
2023-04-16T17:23:36.479Z,85.60
2023-04-16T17:26:01.763Z,85.80
2023-04-16T17:28:25.973Z,86.00
2023-04-16T17:30:53.052Z,86.70
2023-04-16T17:33:17.142Z,87.50
2023-04-16T17:35:41.083Z,88.50
2023-04-16T17:38:04.348Z,88.70
2023-04-16T17:40:29.086Z,88.80
2023-04-16T17:42:52.511Z,88.70
2023-04-16T17:45:16.022Z,88.70
2023-04-16T17:47:39.855Z,88.70
2023-04-16T17:50:03.413Z,88.80
2023-04-16T17:52:27.275Z,88.90
2023-04-16T17:54:50.544Z,89.00
2023-04-16T17:57:15.755Z,88.80
2023-04-16T17:59:39.056Z,88.90
2023-04-16T18:02:02.434Z,88.70
2023-04-16T18:04:25.775Z,88.50
2023-04-16T18:06:49.094Z,88.20
2023-04-16T18:09:12.416Z,88.20
2023-04-16T18:11:35.826Z,88.30
2023-04-16T18:14:00.550Z,88.20
2023-04-16T18:16:24.445Z,88.10
2023-04-16T18:18:47.848Z,88.20
2023-04-16T18:21:11.288Z,88.20
2023-04-16T18:23:34.575Z,88.30
2023-04-16T18:25:58.662Z,88.10
2023-04-16T18:28:21.951Z,88.20
2023-04-16T18:30:46.863Z,88.30
2023-04-16T18:33:42.757Z,88.30
2023-04-16T18:35:54.915Z,88.20
2023-04-16T18:38:18.388Z,88.10
2023-04-16T18:40:42.326Z,88.20
2023-04-16T18:43:05.758Z,87.70
2023-04-16T18:45:29.010Z,87.80
2023-04-16T18:47:53.695Z,87.80
2023-04-16T18:50:21.068Z,87.90
2023-04-16T18:52:44.421Z,87.90
2023-04-16T18:55:08.751Z,87.70
2023-04-16T18:57:32.135Z,87.80
2023-04-16T18:59:55.729Z,87.80
2023-04-16T19:02:19.172Z,87.80
2023-04-16T19:04:44.021Z,87.60
2023-04-16T19:07:07.294Z,87.40
2023-04-16T19:09:30.634Z,87.50
2023-04-16T19:11:53.923Z,87.40
2023-04-16T19:14:17.755Z,87.30
2023-04-16T19:16:41.706Z,87.50
2023-04-16T19:19:05.542Z,87.50
2023-04-16T19:21:30.761Z,87.50
2023-04-16T19:23:54.174Z,87.60
2023-04-16T19:26:17.736Z,87.70
2023-04-16T19:28:42.446Z,87.90
2023-04-16T19:31:06.500Z,87.70
2023-04-16T19:33:29.976Z,87.80
2023-04-16T19:35:53.290Z,87.80
2023-04-16T19:38:18.300Z,87.80
2023-04-16T19:40:41.652Z,88.00
2023-04-16T19:43:05.110Z,88.10
2023-04-16T19:45:29.129Z,88.00
2023-04-16T19:47:52.591Z,87.90
2023-04-16T19:50:16.171Z,88.30
2023-04-16T19:52:39.377Z,88.10
2023-04-16T19:55:04.181Z,88.00
2023-04-16T19:57:27.385Z,87.90
2023-04-16T19:59:50.879Z,88.00
2023-04-16T20:02:14.161Z,87.90
2023-04-16T20:04:37.427Z,88.20
2023-04-16T20:07:00.730Z,88.10
2023-04-16T20:09:25.365Z,88.10
2023-04-16T20:11:49.909Z,88.00
2023-04-16T20:14:13.288Z,87.90
2023-04-16T20:16:38.547Z,88.10
2023-04-16T20:19:04.604Z,89.80
2023-04-16T20:21:29.215Z,90.60
2023-04-16T20:23:52.514Z,91.40
2023-04-16T20:26:18.215Z,91.90
2023-04-16T20:28:42.971Z,92.00
2023-04-16T20:31:06.283Z,92.00
2023-04-16T20:33:29.529Z,92.00
2023-04-16T20:35:52.784Z,92.10
2023-04-16T20:38:18.194Z,92.20
2023-04-16T20:40:41.947Z,92.30
2023-04-16T20:43:10.039Z,92.40
2023-04-16T20:45:38.161Z,92.30
2023-04-16T20:48:02.349Z,92.40
2023-04-16T20:50:25.772Z,92.60
2023-04-16T20:52:49.209Z,92.50
2023-04-16T20:55:12.480Z,92.50
2023-04-16T20:57:35.862Z,92.00
2023-04-16T20:59:59.586Z,92.00
2023-04-16T21:02:25.152Z,92.00
2023-04-16T21:04:48.621Z,91.80
2023-04-16T21:07:12.145Z,91.60
2023-04-16T21:09:35.676Z,91.70
2023-04-16T21:11:59.049Z,91.90
2023-04-16T21:14:22.611Z,92.10
2023-04-16T21:16:46.089Z,92.20
2023-04-16T21:19:11.300Z,91.90
2023-04-16T21:21:34.755Z,91.90
2023-04-16T21:23:58.053Z,91.90
2023-04-16T21:26:21.433Z,91.80
2023-04-16T21:28:44.934Z,92.00
2023-04-16T21:31:08.338Z,92.00
2023-04-16T21:33:31.610Z,92.30
2023-04-16T21:35:56.326Z,92.20
2023-04-16T21:38:19.647Z,92.40
2023-04-16T21:40:42.897Z,92.10
2023-04-16T21:43:06.486Z,92.10
2023-04-16T21:45:30.663Z,92.20
2023-04-16T21:47:54.035Z,92.10
2023-04-16T21:50:17.415Z,92.20
2023-04-16T21:52:46.509Z,92.30
2023-04-16T21:55:10.792Z,92.20
2023-04-16T21:57:34.009Z,92.30
2023-04-16T21:59:57.355Z,92.40
2023-04-16T22:02:21.219Z,92.20
2023-04-16T22:04:44.510Z,92.40
2023-04-16T22:07:09.764Z,92.40
2023-04-16T22:09:34.400Z,92.30
2023-04-16T22:11:58.186Z,92.60
2023-04-16T22:14:21.526Z,92.70
2023-04-16T22:16:45.711Z,92.60
2023-04-16T22:19:09.584Z,92.70
2023-04-16T22:21:33.057Z,92.70
2023-04-16T22:23:56.356Z,92.60
2023-04-16T22:26:21.001Z,92.70
2023-04-16T22:28:44.305Z,92.70
2023-04-16T22:31:07.560Z,92.80
2023-04-16T22:33:31.342Z,92.80
2023-04-16T22:35:54.810Z,92.70
2023-04-16T22:38:18.042Z,92.70
2023-04-16T22:40:41.342Z,92.90
2023-04-16T22:43:06.216Z,92.80
2023-04-16T22:45:29.533Z,92.80
2023-04-16T22:47:52.835Z,92.80
2023-04-16T22:50:16.115Z,92.70
2023-04-16T22:52:39.398Z,92.80
2023-04-16T22:55:02.703Z,92.80
2023-04-16T22:57:26.191Z,92.80
2023-04-16T22:59:50.833Z,92.80
2023-04-16T23:02:14.079Z,92.90
2023-04-16T23:04:37.387Z,92.90
2023-04-16T23:07:00.822Z,93.00
2023-04-16T23:09:24.078Z,93.00
2023-04-16T23:11:47.358Z,92.90
2023-04-16T23:14:10.702Z,92.90
2023-04-16T23:16:35.406Z,92.80
2023-04-16T23:18:58.726Z,92.90
2023-04-16T23:21:22.902Z,92.80
2023-04-16T23:23:46.273Z,92.90
2023-04-16T23:26:09.505Z,93.00
2023-04-16T23:28:32.746Z,92.90
2023-04-16T23:30:56.053Z,93.00
2023-04-16T23:33:20.810Z,93.00
2023-04-16T23:35:44.053Z,92.90
2023-04-16T23:38:07.492Z,92.80
2023-04-16T23:40:31.193Z,92.70
2023-04-16T23:42:54.427Z,92.70
2023-04-16T23:45:17.930Z,92.70
2023-04-16T23:47:41.324Z,92.70
2023-04-16T23:50:07.585Z,92.80
2023-04-16T23:52:31.011Z,92.80
2023-04-16T23:54:54.251Z,92.90
2023-04-16T23:57:17.703Z,92.80
2023-04-16T23:59:40.947Z,92.80
